createdAt,value
2018-10-11T00:01:37.037Z,99.90
2018-10-11T00:04:05.374Z,99.90
2018-10-11T00:06:33.617Z,99.90
2018-10-11T00:09:01.825Z,99.90
2018-10-11T00:11:30.374Z,99.90
2018-10-11T00:13:58.583Z,99.90
2018-10-11T00:16:26.867Z,99.90
2018-10-11T00:18:55.189Z,99.90
2018-10-11T00:21:23.494Z,99.90
2018-10-11T00:23:51.807Z,99.90
2018-10-11T00:26:20.123Z,99.90
2018-10-11T00:28:48.473Z,99.90
2018-10-11T00:31:16.722Z,99.90
2018-10-11T00:33:45.046Z,99.90
2018-10-11T00:36:13.246Z,99.90
2018-10-11T00:38:41.553Z,99.90
2018-10-11T00:41:09.887Z,99.90
2018-10-11T00:43:38.197Z,99.90
2018-10-11T00:46:06.477Z,99.90
2018-10-11T00:48:34.731Z,99.90
2018-10-11T00:51:02.971Z,99.90
2018-10-11T00:53:31.220Z,99.90
2018-10-11T00:55:59.455Z,99.90
2018-10-11T00:58:27.767Z,99.90
2018-10-11T01:00:56.035Z,99.90
2018-10-11T01:03:24.217Z,99.90
2018-10-11T01:05:52.667Z,99.90
2018-10-11T01:08:20.965Z,99.90
2018-10-11T01:10:49.183Z,99.90
2018-10-11T01:13:17.525Z,99.90
2018-10-11T01:15:45.697Z,99.90
2018-10-11T01:18:14.298Z,99.90
2018-10-11T01:20:42.625Z,99.90
2018-10-11T01:23:10.911Z,99.90
2018-10-11T01:25:39.280Z,99.90
2018-10-11T01:28:07.539Z,99.90
2018-10-11T01:30:35.812Z,99.90
2018-10-11T01:33:04.094Z,99.90
2018-10-11T01:35:32.322Z,99.90
2018-10-11T01:38:00.704Z,99.90
2018-10-11T01:40:28.991Z,99.90
2018-10-11T01:43:01.710Z,99.90
2018-10-11T01:45:29.956Z,99.90
2018-10-11T01:47:58.663Z,99.90
2018-10-11T01:50:27.052Z,99.90
2018-10-11T01:52:56.013Z,99.90
2018-10-11T01:55:24.914Z,99.90
2018-10-11T01:57:53.308Z,99.90
2018-10-11T02:00:21.508Z,99.90
2018-10-11T02:02:49.815Z,99.90
2018-10-11T02:05:18.124Z,99.90
2018-10-11T02:07:46.346Z,99.90
2018-10-11T02:10:14.630Z,99.90
2018-10-11T02:12:43.000Z,99.90
2018-10-11T02:15:11.550Z,99.90
2018-10-11T02:17:39.996Z,99.90
2018-10-11T02:20:08.274Z,99.90
2018-10-11T02:22:36.554Z,99.90
2018-10-11T02:25:04.796Z,99.90
2018-10-11T02:27:33.204Z,99.90
2018-10-11T02:30:01.556Z,99.90
2018-10-11T02:32:29.884Z,99.90
2018-10-11T02:34:58.366Z,99.90
2018-10-11T02:37:26.756Z,99.90
2018-10-11T02:39:55.244Z,99.90
2018-10-11T02:42:23.551Z,99.90
2018-10-11T02:44:51.831Z,99.90
2018-10-11T02:47:20.046Z,99.90
2018-10-11T02:49:48.334Z,99.90
2018-10-11T02:52:16.575Z,99.90
2018-10-11T02:54:44.875Z,99.90
2018-10-11T02:57:24.540Z,99.90
2018-10-11T02:59:52.889Z,99.90
2018-10-11T03:02:21.354Z,99.90
2018-10-11T03:04:49.990Z,99.90
2018-10-11T03:07:18.676Z,99.90
2018-10-11T03:09:47.739Z,99.90
2018-10-11T03:12:16.322Z,99.90
2018-10-11T03:14:44.916Z,99.90
2018-10-11T03:17:13.112Z,99.90
2018-10-11T03:19:42.351Z,99.90
2018-10-11T03:22:11.023Z,99.90
2018-10-11T03:24:39.433Z,99.90
2018-10-11T03:27:07.637Z,99.90
2018-10-11T03:29:35.867Z,99.90
2018-10-11T03:32:04.202Z,99.90
2018-10-11T03:34:32.455Z,99.90
2018-10-11T03:37:00.675Z,99.90
2018-10-11T03:39:29.458Z,99.90
2018-10-11T03:41:58.808Z,99.90
2018-10-11T03:44:27.691Z,99.90
2018-10-11T03:46:55.987Z,99.90
2018-10-11T03:49:28.398Z,99.90
2018-10-11T03:51:56.645Z,99.90
2018-10-11T03:54:25.073Z,99.90
2018-10-11T03:56:53.484Z,99.90
2018-10-11T03:59:21.755Z,99.90
2018-10-11T04:01:49.992Z,99.90
2018-10-11T04:04:18.241Z,99.90
2018-10-11T04:06:46.486Z,99.90
2018-10-11T04:09:14.841Z,99.90
2018-10-11T04:11:43.225Z,99.90
2018-10-11T04:14:11.519Z,99.90
2018-10-11T04:16:39.737Z,99.90
2018-10-11T04:19:08.075Z,99.90
2018-10-11T04:21:36.335Z,99.90
2018-10-11T04:24:04.571Z,99.90
2018-10-11T04:26:33.148Z,99.90
2018-10-11T04:29:01.445Z,99.90
2018-10-11T04:31:30.008Z,99.90
2018-10-11T04:33:58.518Z,99.90
2018-10-11T04:36:26.942Z,99.90
2018-10-11T04:38:55.228Z,99.90
2018-10-11T04:41:25.103Z,99.90
2018-10-11T04:43:53.534Z,99.90
2018-10-11T04:46:23.232Z,99.90
2018-10-11T04:48:52.638Z,99.90
2018-10-11T04:51:21.010Z,99.90
2018-10-11T04:53:55.675Z,99.90
2018-10-11T04:56:25.003Z,99.90
2018-10-11T04:58:53.513Z,99.90
2018-10-11T05:01:21.783Z,99.90
2018-10-11T05:03:50.107Z,99.90
2018-10-11T05:06:18.624Z,99.90
2018-10-11T05:08:46.978Z,99.90
2018-10-11T05:11:15.303Z,99.90
2018-10-11T05:13:45.802Z,99.90
2018-10-11T05:16:14.998Z,99.90
2018-10-11T05:18:47.009Z,99.90
2018-10-11T05:21:15.376Z,99.90
2018-10-11T05:23:44.242Z,99.90
2018-10-11T05:26:12.782Z,99.90
2018-10-11T05:28:41.473Z,99.90
2018-10-11T05:31:09.835Z,99.90
2018-10-11T05:33:38.826Z,99.90
2018-10-11T05:36:07.054Z,99.90
2018-10-11T05:38:35.604Z,99.90
2018-10-11T05:41:03.943Z,99.90
2018-10-11T05:43:32.413Z,99.90
2018-10-11T05:46:02.409Z,99.90
2018-10-11T05:48:32.317Z,99.90
2018-10-11T05:51:01.481Z,99.90
2018-10-11T05:53:30.353Z,99.90
2018-10-11T05:55:59.003Z,99.90
2018-10-11T05:58:27.795Z,99.90
2018-10-11T06:00:56.463Z,99.90
2018-10-11T06:03:24.813Z,99.90
2018-10-11T06:05:54.128Z,99.90
2018-10-11T06:08:22.587Z,99.90
2018-10-11T06:10:51.195Z,99.90
2018-10-11T06:13:19.635Z,99.90
2018-10-11T06:15:48.350Z,99.90
2018-10-11T06:18:18.514Z,99.90
2018-10-11T06:20:46.931Z,99.90
2018-10-11T06:23:15.403Z,99.90
2018-10-11T06:25:44.685Z,99.90
2018-10-11T06:28:13.310Z,99.90
2018-10-11T06:30:41.702Z,99.90
2018-10-11T06:33:10.160Z,99.90
2018-10-11T06:35:38.597Z,99.90
2018-10-11T06:38:06.887Z,99.90
2018-10-11T06:40:36.577Z,99.70
2018-10-11T06:43:05.090Z,99.40
2018-10-11T06:45:33.700Z,99.50
2018-10-11T06:48:03.867Z,99.20
2018-10-11T06:50:32.944Z,99.00
2018-10-11T06:53:01.355Z,99.20
2018-10-11T06:55:29.620Z,98.90
2018-10-11T06:57:57.954Z,98.80
2018-10-11T07:00:27.132Z,98.70
2018-10-11T07:02:55.855Z,98.50
2018-10-11T07:05:24.382Z,98.10
2018-10-11T07:07:53.532Z,98.30
2018-10-11T07:10:22.796Z,98.00
2018-10-11T07:12:51.030Z,98.40
2018-10-11T07:15:19.269Z,98.00
2018-10-11T07:17:47.747Z,97.70
2018-10-11T07:20:16.208Z,97.60
2018-10-11T07:22:44.696Z,97.80
2018-10-11T07:25:13.077Z,97.50
2018-10-11T07:27:41.522Z,97.40
2018-10-11T07:30:10.115Z,97.20
2018-10-11T07:32:38.399Z,97.10
2018-10-11T07:35:06.752Z,96.50
2018-10-11T07:37:35.216Z,96.70
2018-10-11T07:40:03.556Z,96.60
2018-10-11T07:42:31.862Z,96.50
2018-10-11T07:45:00.309Z,95.90
2018-10-11T07:47:29.013Z,96.20
2018-10-11T07:50:03.217Z,95.80
2018-10-11T07:52:38.155Z,95.60
2018-10-11T07:55:06.531Z,95.60
2018-10-11T07:57:34.854Z,95.20
2018-10-11T08:00:03.115Z,94.90
2018-10-11T08:02:31.694Z,95.00
2018-10-11T08:05:00.062Z,94.40
2018-10-11T08:07:28.945Z,94.50
2018-10-11T08:09:57.117Z,94.10
2018-10-11T08:12:25.501Z,93.90
2018-10-11T08:14:53.951Z,93.80
2018-10-11T08:17:22.430Z,93.50
2018-10-11T08:19:51.198Z,93.30
2018-10-11T08:22:19.665Z,93.30
2018-10-11T08:24:48.942Z,93.10
2018-10-11T08:27:17.329Z,93.50
2018-10-11T08:29:45.649Z,93.30
2018-10-11T08:32:14.051Z,93.20
2018-10-11T08:34:42.549Z,92.80
2018-10-11T08:37:10.879Z,92.70
2018-10-11T08:39:39.196Z,92.70
2018-10-11T08:42:09.907Z,92.40
2018-10-11T08:44:38.181Z,91.90
2018-10-11T08:47:07.472Z,91.80
2018-10-11T08:49:35.805Z,91.60
2018-10-11T08:52:04.116Z,91.70
2018-10-11T08:54:37.889Z,91.50
2018-10-11T08:57:06.636Z,91.40
2018-10-11T08:59:35.013Z,91.20
2018-10-11T09:02:03.280Z,91.00
2018-10-11T09:04:31.667Z,91.20
2018-10-11T09:06:59.966Z,90.80
2018-10-11T09:09:28.317Z,90.70
2018-10-11T09:11:57.225Z,90.60
2018-10-11T09:14:25.711Z,90.40
2018-10-11T09:16:54.077Z,90.30
2018-10-11T09:19:22.499Z,90.10
2018-10-11T09:21:50.831Z,90.20
2018-10-11T09:24:19.408Z,90.10
2018-10-11T09:26:47.653Z,89.80
2018-10-11T09:29:15.958Z,89.90
2018-10-11T09:31:44.293Z,89.90
2018-10-11T09:34:12.656Z,89.80
2018-10-11T09:36:40.998Z,88.90
2018-10-11T09:39:09.556Z,86.40
2018-10-11T09:41:39.226Z,85.80
2018-10-11T09:44:07.733Z,85.20
2018-10-11T09:46:42.913Z,83.10
2018-10-11T09:49:16.566Z,82.00
2018-10-11T09:51:44.789Z,81.70
2018-10-11T09:54:13.588Z,81.20
2018-10-11T09:57:18.839Z,80.00
2018-10-11T09:59:47.248Z,79.90
2018-10-11T10:02:15.825Z,78.90
2018-10-11T10:04:48.338Z,78.30
2018-10-11T10:07:16.705Z,77.90
2018-10-11T10:09:45.794Z,78.50
2018-10-11T10:12:14.421Z,77.70
2018-10-11T10:14:43.518Z,77.10
2018-10-11T10:17:11.837Z,76.40
2018-10-11T10:19:40.829Z,75.90
2018-10-11T10:22:09.138Z,75.20
2018-10-11T10:24:37.598Z,74.70
2018-10-11T10:27:06.021Z,74.90
2018-10-11T10:29:34.551Z,75.30
2018-10-11T10:32:03.230Z,76.00
2018-10-11T10:34:31.550Z,75.20
2018-10-11T10:36:59.918Z,74.10
2018-10-11T10:39:28.851Z,73.30
2018-10-11T10:41:57.298Z,73.90
2018-10-11T10:44:25.603Z,73.80
2018-10-11T10:46:53.957Z,74.50
2018-10-11T10:49:22.327Z,74.30
2018-10-11T10:51:50.649Z,73.20
2018-10-11T10:54:21.443Z,73.50
2018-10-11T10:56:50.423Z,73.20
2018-10-11T10:59:18.722Z,73.60
2018-10-11T11:01:47.259Z,73.80
2018-10-11T11:04:15.569Z,73.20
2018-10-11T11:06:43.926Z,72.10
2018-10-11T11:09:13.599Z,72.00
2018-10-11T11:11:43.217Z,71.70
2018-10-11T11:14:12.976Z,71.70
2018-10-11T11:16:41.730Z,71.40
2018-10-11T11:19:11.045Z,71.20
2018-10-11T11:21:39.397Z,72.20
2018-10-11T11:24:07.762Z,72.10
2018-10-11T11:26:36.045Z,71.80
2018-10-11T11:29:04.420Z,71.80
2018-10-11T11:31:33.044Z,72.60
2018-10-11T11:34:01.990Z,72.00
2018-10-11T11:36:30.355Z,70.80
2018-10-11T11:38:59.054Z,70.30
2018-10-11T11:41:27.799Z,70.90
2018-10-11T11:43:56.164Z,70.70
2018-10-11T11:46:25.323Z,70.80
2018-10-11T11:48:53.602Z,71.40
2018-10-11T11:51:21.980Z,71.30
2018-10-11T11:53:50.250Z,70.80
2018-10-11T11:56:18.510Z,70.00
2018-10-11T11:58:46.807Z,69.90
2018-10-11T12:01:15.099Z,70.00
2018-10-11T12:03:43.443Z,69.80
2018-10-11T12:06:11.907Z,69.40
2018-10-11T12:08:40.842Z,69.20
2018-10-11T12:11:09.192Z,69.30
2018-10-11T12:13:37.560Z,69.50
2018-10-11T12:16:05.941Z,68.70
2018-10-11T12:18:34.306Z,68.40
2018-10-11T12:21:02.842Z,69.30
2018-10-11T12:23:31.176Z,69.30
2018-10-11T12:25:59.440Z,69.10
2018-10-11T12:28:27.797Z,68.90
2018-10-11T12:30:56.329Z,68.80
2018-10-11T12:33:24.808Z,68.40
2018-10-11T12:35:53.324Z,68.00
2018-10-11T12:38:21.830Z,68.90
2018-10-11T12:40:50.127Z,68.70
2018-10-11T12:43:18.463Z,68.80
2018-10-11T12:45:46.815Z,68.50
2018-10-11T12:48:15.204Z,68.70
2018-10-11T12:50:43.540Z,67.80
2018-10-11T12:53:11.922Z,66.90
2018-10-11T12:55:40.410Z,66.30
2018-10-11T12:58:08.708Z,66.10
2018-10-11T13:00:37.908Z,66.10
2018-10-11T13:03:06.216Z,66.30
2018-10-11T13:05:34.623Z,67.10
2018-10-11T13:08:02.908Z,66.90
2018-10-11T13:10:31.237Z,66.70
2018-10-11T13:13:01.632Z,66.50
2018-10-11T13:15:28.003Z,66.50
2018-10-11T13:17:56.268Z,65.90
2018-10-11T13:20:24.810Z,66.10
2018-10-11T13:22:53.310Z,66.40
2018-10-11T13:25:21.731Z,66.20
2018-10-11T13:27:50.117Z,66.30
2018-10-11T13:30:18.427Z,66.00
2018-10-11T13:32:46.801Z,66.00
2018-10-11T13:35:15.351Z,66.20
2018-10-11T13:37:43.573Z,65.80
2018-10-11T13:40:12.091Z,65.60
2018-10-11T13:42:53.468Z,65.90
2018-10-11T13:45:21.992Z,65.70
2018-10-11T13:47:50.285Z,65.70
2018-10-11T13:50:18.525Z,66.00
2018-10-11T13:52:46.796Z,66.00
2018-10-11T13:55:15.799Z,66.10
2018-10-11T13:57:43.714Z,65.50
2018-10-11T14:00:12.359Z,65.70
2018-10-11T14:02:41.111Z,65.80
2018-10-11T14:05:09.441Z,65.50
2018-10-11T14:07:37.889Z,65.00
2018-10-11T14:10:06.259Z,64.90
2018-10-11T14:12:34.657Z,64.60
2018-10-11T14:15:03.398Z,64.40
2018-10-11T14:17:31.862Z,64.50
2018-10-11T14:20:00.782Z,64.60
2018-10-11T14:22:29.795Z,64.30
2018-10-11T14:24:58.301Z,64.10
2018-10-11T14:27:26.845Z,64.50
2018-10-11T14:29:55.225Z,63.90
2018-10-11T14:32:23.633Z,63.80
2018-10-11T14:34:52.035Z,63.70
2018-10-11T14:37:20.922Z,63.40
2018-10-11T14:39:50.023Z,63.60
2018-10-11T14:42:18.341Z,63.30
2018-10-11T14:44:46.915Z,62.80
2018-10-11T14:47:15.258Z,62.80
2018-10-11T14:49:44.241Z,62.30
2018-10-11T14:52:12.654Z,62.30
2018-10-11T14:54:41.290Z,62.20
2018-10-11T14:57:09.750Z,63.10
2018-10-11T14:59:38.323Z,62.10
2018-10-11T15:02:06.755Z,61.80
2018-10-11T15:04:35.285Z,61.00
2018-10-11T15:07:03.735Z,60.60
2018-10-11T15:09:32.126Z,61.10
2018-10-11T15:12:00.749Z,60.10
2018-10-11T15:14:29.637Z,60.30
2018-10-11T15:16:58.171Z,60.30
2018-10-11T15:19:26.533Z,60.70
2018-10-11T15:21:55.172Z,60.00
2018-10-11T15:24:23.794Z,59.80
2018-10-11T15:26:55.868Z,59.60
2018-10-11T15:29:24.458Z,59.80
2018-10-11T15:31:53.652Z,59.80
2018-10-11T15:34:22.331Z,59.60
2018-10-11T15:36:50.671Z,59.50
2018-10-11T15:39:18.920Z,59.20
2018-10-11T15:41:48.255Z,59.20
2018-10-11T15:44:17.159Z,58.90
2018-10-11T15:46:45.933Z,59.80
2018-10-11T15:49:14.988Z,59.30
2018-10-11T15:51:43.924Z,59.20
2018-10-11T15:54:12.329Z,59.00
2018-10-11T15:56:40.751Z,58.90
2018-10-11T15:59:09.147Z,59.20
2018-10-11T16:01:37.601Z,59.60
2018-10-11T16:04:06.221Z,59.50
2018-10-11T16:06:34.890Z,59.50
2018-10-11T16:09:03.715Z,59.40
2018-10-11T16:11:32.559Z,59.70
2018-10-11T16:14:01.993Z,59.40
2018-10-11T16:16:30.568Z,60.10
2018-10-11T16:18:58.929Z,59.90
2018-10-11T16:21:27.206Z,60.20
2018-10-11T16:23:55.506Z,60.10
2018-10-11T16:26:24.987Z,60.60
2018-10-11T16:28:58.825Z,60.80
2018-10-11T16:31:32.250Z,60.70
2018-10-11T16:34:01.415Z,60.80
2018-10-11T16:36:30.121Z,60.80
2018-10-11T16:38:58.646Z,61.10
2018-10-11T16:41:27.956Z,61.20
2018-10-11T16:43:56.361Z,61.50
2018-10-11T16:46:25.744Z,61.50
2018-10-11T16:48:54.765Z,61.40
2018-10-11T16:51:23.363Z,61.50
2018-10-11T16:53:51.924Z,61.30
2018-10-11T16:56:20.303Z,61.70
2018-10-11T16:58:48.624Z,62.70
2018-10-11T17:01:17.188Z,63.50
2018-10-11T17:03:45.506Z,63.80
2018-10-11T17:06:14.011Z,63.60
2018-10-11T17:08:42.430Z,63.80
2018-10-11T17:11:10.760Z,63.80
2018-10-11T17:13:39.123Z,63.70
2018-10-11T17:16:07.442Z,64.20
2018-10-11T17:18:37.232Z,64.20
2018-10-11T17:21:05.766Z,64.40
2018-10-11T17:23:34.516Z,64.50
2018-10-11T17:26:02.938Z,64.60
2018-10-11T17:28:31.578Z,64.80
2018-10-11T17:30:59.880Z,64.70
2018-10-11T17:33:28.520Z,65.00
2018-10-11T17:35:57.149Z,65.30
2018-10-11T17:38:26.507Z,65.30
2018-10-11T17:40:54.902Z,65.20
2018-10-11T17:43:23.411Z,65.50
2018-10-11T17:45:52.595Z,65.50
2018-10-11T17:48:22.347Z,65.80
2018-10-11T17:50:51.107Z,66.10
2018-10-11T17:53:20.887Z,66.40
2018-10-11T17:55:49.297Z,66.80
2018-10-11T17:58:17.876Z,67.30
2018-10-11T18:00:46.451Z,67.60
2018-10-11T18:03:14.913Z,68.00
2018-10-11T18:05:43.431Z,68.70
2018-10-11T18:08:11.831Z,68.90
2018-10-11T18:10:40.537Z,69.40
2018-10-11T18:13:09.755Z,69.50
2018-10-11T18:15:38.275Z,69.70
2018-10-11T18:18:13.483Z,70.60
2018-10-11T18:20:42.883Z,70.50
2018-10-11T18:23:12.322Z,70.90
2018-10-11T18:25:41.743Z,71.20
2018-10-11T18:28:12.028Z,71.70
2018-10-11T18:30:40.575Z,72.20
2018-10-11T18:33:09.323Z,72.20
2018-10-11T18:35:39.065Z,72.60
2018-10-11T18:38:07.700Z,72.40
2018-10-11T18:40:36.262Z,72.70
2018-10-11T18:43:04.773Z,73.40
2018-10-11T18:45:33.147Z,74.30
2018-10-11T18:48:01.679Z,73.70
2018-10-11T18:50:32.445Z,73.80
2018-10-11T18:53:01.287Z,73.60
2018-10-11T18:55:29.914Z,73.20
2018-10-11T18:57:58.589Z,73.80
2018-10-11T19:00:27.265Z,72.90
2018-10-11T19:02:55.682Z,72.90
2018-10-11T19:05:24.248Z,72.90
2018-10-11T19:07:52.895Z,72.90
2018-10-11T19:10:21.343Z,73.00
2018-10-11T19:12:50.091Z,72.70
2018-10-11T19:15:18.489Z,72.40
2018-10-11T19:17:47.644Z,72.10
2018-10-11T19:20:16.264Z,72.10
2018-10-11T19:22:44.931Z,72.20
2018-10-11T19:25:13.367Z,72.30
2018-10-11T19:27:41.927Z,72.30
2018-10-11T19:30:10.814Z,72.20
2018-10-11T19:32:39.285Z,72.20
2018-10-11T19:35:07.879Z,71.90
2018-10-11T19:37:36.317Z,72.00
2018-10-11T19:40:05.434Z,72.10
2018-10-11T19:42:34.173Z,72.10
2018-10-11T19:45:02.683Z,72.30
2018-10-11T19:47:31.425Z,72.40
2018-10-11T19:49:59.964Z,72.50
2018-10-11T19:52:28.542Z,73.00
2018-10-11T19:54:57.211Z,72.50
2018-10-11T19:57:25.844Z,72.60
2018-10-11T19:59:54.396Z,72.60
2018-10-11T20:02:22.941Z,72.40
2018-10-11T20:04:51.469Z,72.60
2018-10-11T20:07:19.916Z,73.20
2018-10-11T20:09:48.339Z,73.00
2018-10-11T20:12:16.918Z,73.50
2018-10-11T20:14:45.728Z,73.10
2018-10-11T20:17:14.155Z,72.90
2018-10-11T20:19:42.698Z,72.70
2018-10-11T20:22:12.114Z,72.70
2018-10-11T20:24:40.549Z,72.80
2018-10-11T20:27:09.730Z,72.90
2018-10-11T20:29:38.625Z,73.30
2018-10-11T20:32:08.345Z,73.80
2018-10-11T20:34:36.861Z,73.80
2018-10-11T20:37:05.797Z,73.90
2018-10-11T20:39:34.510Z,73.60
2018-10-11T20:42:03.568Z,73.20
2018-10-11T20:44:32.139Z,73.20
2018-10-11T20:47:00.550Z,73.20
2018-10-11T20:49:29.076Z,73.40
2018-10-11T20:51:57.425Z,73.40
2018-10-11T20:54:26.312Z,72.50
2018-10-11T20:56:54.885Z,73.20
2018-10-11T20:59:23.936Z,73.00
2018-10-11T21:01:52.721Z,73.00
2018-10-11T21:04:22.258Z,72.90
2018-10-11T21:06:50.518Z,71.90
2018-10-11T21:09:18.943Z,71.90
2018-10-11T21:11:47.402Z,71.70
2018-10-11T21:14:15.773Z,71.20
2018-10-11T21:16:44.044Z,71.40
2018-10-11T21:19:12.510Z,71.60
2018-10-11T21:21:40.850Z,71.40
2018-10-11T21:24:09.473Z,71.40
2018-10-11T21:26:37.796Z,70.80
2018-10-11T21:29:12.870Z,71.50
2018-10-11T21:31:41.279Z,71.10
2018-10-11T21:34:09.824Z,71.10
2018-10-11T21:36:38.301Z,70.70
2018-10-11T21:39:09.528Z,70.90
2018-10-11T21:41:38.028Z,70.80
2018-10-11T21:44:06.604Z,70.60
2018-10-11T21:46:35.241Z,71.20
2018-10-11T21:49:04.070Z,70.90
2018-10-11T21:51:33.103Z,71.00
2018-10-11T21:54:01.734Z,70.90
2018-10-11T21:56:30.173Z,70.60
2018-10-11T21:58:58.587Z,70.50
2018-10-11T22:01:26.977Z,70.60
2018-10-11T22:03:55.314Z,70.30
2018-10-11T22:06:24.161Z,70.60
2018-10-11T22:08:52.656Z,71.00
2018-10-11T22:11:20.950Z,71.50
2018-10-11T22:13:49.450Z,71.30
2018-10-11T22:16:17.868Z,71.10
2018-10-11T22:18:46.369Z,70.60
2018-10-11T22:21:14.652Z,71.10
2018-10-11T22:23:43.808Z,71.00
2018-10-11T22:26:12.770Z,70.70
2018-10-11T22:28:41.783Z,70.30
2018-10-11T22:31:11.809Z,70.30
2018-10-11T22:33:40.486Z,70.50
2018-10-11T22:36:09.724Z,70.00
2018-10-11T22:38:38.101Z,70.10
2018-10-11T22:41:06.394Z,69.90
2018-10-11T22:43:35.134Z,70.30
2018-10-11T22:46:03.453Z,70.20
2018-10-11T22:48:31.791Z,70.20
2018-10-11T22:51:00.391Z,69.80
2018-10-11T22:53:28.735Z,69.70
2018-10-11T22:55:57.168Z,69.60
2018-10-11T22:58:25.556Z,69.90
2018-10-11T23:00:53.809Z,70.30
2018-10-11T23:03:22.214Z,69.90
2018-10-11T23:05:50.576Z,70.20
2018-10-11T23:08:18.905Z,70.20
2018-10-11T23:10:47.353Z,70.00
2018-10-11T23:13:15.728Z,69.50
2018-10-11T23:15:44.036Z,69.00
2018-10-11T23:18:12.363Z,68.90
2018-10-11T23:20:40.724Z,68.80
2018-10-11T23:23:08.988Z,68.90
2018-10-11T23:25:37.295Z,68.90
2018-10-11T23:28:05.710Z,69.00
2018-10-11T23:30:34.013Z,68.90
2018-10-11T23:33:02.464Z,68.90
2018-10-11T23:35:30.767Z,69.00
2018-10-11T23:37:59.031Z,69.40
2018-10-11T23:40:27.391Z,69.50
2018-10-11T23:42:55.657Z,69.90
2018-10-11T23:45:24.000Z,69.90
2018-10-11T23:47:52.335Z,70.00
2018-10-11T23:50:20.892Z,70.30
2018-10-11T23:52:49.151Z,70.20
2018-10-11T23:55:17.448Z,70.20
2018-10-11T23:57:45.681Z,70.40
